createdAt,value
2022-12-18T00:01:34.177Z,31.00
2022-12-18T00:04:01.949Z,32.72
2022-12-18T00:06:28.933Z,34.47
2022-12-18T00:08:56.146Z,34.55
2022-12-18T00:11:24.605Z,31.40
2022-12-18T00:13:51.504Z,34.85
2022-12-18T00:16:21.361Z,32.08
2022-12-18T00:18:48.442Z,32.58
2022-12-18T00:21:15.141Z,34.10
2022-12-18T00:23:42.860Z,34.55
2022-12-18T00:26:15.951Z,35.92
2022-12-18T00:31:10.296Z,34.45
2022-12-18T00:33:37.349Z,36.90
2022-12-18T00:36:03.914Z,33.13
2022-12-18T00:38:32.248Z,34.25
2022-12-18T00:40:58.575Z,33.67
2022-12-18T00:43:24.943Z,36.33
2022-12-18T00:45:53.034Z,36.50
2022-12-18T00:48:19.437Z,36.72
2022-12-18T00:50:45.844Z,36.58
2022-12-18T00:53:12.412Z,29.60
2022-12-18T00:55:40.103Z,34.05
2022-12-18T00:58:07.645Z,35.72
2022-12-18T01:00:36.077Z,37.72
2022-12-18T01:03:02.663Z,36.63
2022-12-18T01:05:29.084Z,37.65
2022-12-18T01:07:56.154Z,37.03
2022-12-18T01:10:22.811Z,38.38
2022-12-18T01:12:49.330Z,31.73
2022-12-18T01:15:18.369Z,35.90
2022-12-18T01:17:44.733Z,36.60
2022-12-18T01:20:12.009Z,35.33
2022-12-18T01:22:38.613Z,30.00
2022-12-18T01:25:07.602Z,34.08
2022-12-18T01:27:34.817Z,35.72
2022-12-18T01:30:03.976Z,33.63
2022-12-18T01:32:31.342Z,33.55
2022-12-18T01:34:57.764Z,34.63
2022-12-18T01:37:24.178Z,34.40
2022-12-18T01:39:50.882Z,35.17
2022-12-18T01:42:17.448Z,36.35
2022-12-18T01:45:02.624Z,34.00
2022-12-18T01:47:41.300Z,34.30
2022-12-18T01:50:07.572Z,31.70
2022-12-18T01:52:34.467Z,31.30
2022-12-18T01:55:02.587Z,34.80
2022-12-18T01:57:29.207Z,37.60
2022-12-18T01:59:57.972Z,33.92
2022-12-18T02:02:24.943Z,36.35
2022-12-18T02:04:52.255Z,36.53
2022-12-18T02:07:22.632Z,32.47
2022-12-18T02:09:53.639Z,34.35
2022-12-18T02:12:25.269Z,34.47
2022-12-18T02:14:51.584Z,34.92
2022-12-18T02:17:22.873Z,35.58
2022-12-18T02:19:49.214Z,34.83
2022-12-18T02:22:21.972Z,34.63
2022-12-18T02:24:58.822Z,33.47
2022-12-18T02:27:25.440Z,35.00
2022-12-18T02:29:57.866Z,33.53
2022-12-18T02:32:39.354Z,27.65
2022-12-18T02:35:06.892Z,35.08
2022-12-18T02:37:35.218Z,33.85
2022-12-18T02:40:04.242Z,36.13
2022-12-18T02:42:32.867Z,34.60
2022-12-18T02:45:00.875Z,34.97
2022-12-18T02:47:33.368Z,32.90
2022-12-18T02:50:12.743Z,32.90
2022-12-18T02:52:39.128Z,33.60
2022-12-18T02:55:27.171Z,34.35
2022-12-18T02:57:58.722Z,34.13
2022-12-18T03:00:33.905Z,32.53
2022-12-18T03:03:06.561Z,33.35
2022-12-18T03:05:44.284Z,31.77
2022-12-18T03:08:15.299Z,31.40
2022-12-18T03:10:50.130Z,32.17
2022-12-18T03:13:21.311Z,31.33
2022-12-18T03:15:49.424Z,29.00
2022-12-18T03:18:19.988Z,32.03
2022-12-18T03:20:48.025Z,29.23
2022-12-18T03:23:25.561Z,27.90
2022-12-18T03:25:54.441Z,29.23
2022-12-18T03:28:23.292Z,27.75
2022-12-18T03:30:57.540Z,30.30
2022-12-18T03:33:30.549Z,28.98
2022-12-18T03:35:57.821Z,29.05
2022-12-18T03:38:24.434Z,28.27
2022-12-18T03:41:02.681Z,29.58
2022-12-18T03:43:53.598Z,27.08
2022-12-18T03:46:23.979Z,28.80
2022-12-18T03:48:59.929Z,27.75
2022-12-18T03:51:37.968Z,27.80
2022-12-18T03:54:05.658Z,26.75
2022-12-18T03:56:39.648Z,28.50
2022-12-18T03:59:08.207Z,28.20
2022-12-18T04:01:37.046Z,26.15
2022-12-18T04:04:04.629Z,26.38
2022-12-18T04:06:34.600Z,26.50
2022-12-18T04:09:01.242Z,26.15
2022-12-18T04:11:29.251Z,27.20
2022-12-18T04:13:59.132Z,23.92
2022-12-18T04:16:26.459Z,25.92
2022-12-18T04:18:56.037Z,26.13
2022-12-18T04:21:24.428Z,24.10
2022-12-18T04:23:52.195Z,22.52
2022-12-18T04:26:21.263Z,22.60
2022-12-18T04:28:59.168Z,23.63
2022-12-18T04:31:25.580Z,22.30
2022-12-18T04:33:52.420Z,25.15
2022-12-18T04:36:18.928Z,19.92
2022-12-18T04:38:46.200Z,23.98
2022-12-18T04:41:15.773Z,24.15
2022-12-18T04:43:44.057Z,21.42
2022-12-18T04:46:10.667Z,25.58
2022-12-18T04:48:37.509Z,23.15
2022-12-18T04:51:04.502Z,22.98
2022-12-18T04:53:30.835Z,22.60
2022-12-18T04:56:10.537Z,23.50
2022-12-18T04:58:37.494Z,23.20
2022-12-18T05:01:04.358Z,21.85
2022-12-18T05:03:30.906Z,21.55
2022-12-18T05:05:57.359Z,21.95
2022-12-18T05:08:23.682Z,20.60
2022-12-18T05:10:50.068Z,20.80
2022-12-18T05:13:16.412Z,20.65
2022-12-18T05:15:42.850Z,19.60
2022-12-18T05:18:09.649Z,19.88
2022-12-18T05:20:36.016Z,22.75
2022-12-18T05:23:02.372Z,18.52
2022-12-18T05:25:28.704Z,19.48
2022-12-18T05:27:55.155Z,20.88
2022-12-18T05:30:21.606Z,20.35
2022-12-18T05:32:47.942Z,18.77
2022-12-18T05:35:14.285Z,20.25
2022-12-18T05:37:43.296Z,19.95
2022-12-18T05:40:10.347Z,19.52
2022-12-18T05:42:36.753Z,18.08
2022-12-18T05:45:03.214Z,20.10
2022-12-18T05:47:29.749Z,18.30
2022-12-18T05:49:56.507Z,17.95
2022-12-18T05:52:22.889Z,21.15
2022-12-18T05:54:49.237Z,19.95
2022-12-18T05:57:15.869Z,20.27
2022-12-18T05:59:42.179Z,18.77
2022-12-18T06:02:08.740Z,19.23
2022-12-18T06:04:35.189Z,20.02
2022-12-18T06:07:04.674Z,19.10
2022-12-18T06:09:31.045Z,20.42
2022-12-18T06:11:57.389Z,19.55
2022-12-18T06:14:23.757Z,21.35
2022-12-18T06:16:51.294Z,18.65
2022-12-18T06:19:17.849Z,19.38
2022-12-18T06:21:44.194Z,19.58
2022-12-18T06:24:10.984Z,19.77
2022-12-18T06:26:40.207Z,20.52
2022-12-18T06:29:06.946Z,21.17
2022-12-18T06:31:33.477Z,16.95
2022-12-18T06:33:59.893Z,18.05
2022-12-18T06:36:26.949Z,20.67
2022-12-18T06:38:53.273Z,20.60
2022-12-18T06:41:20.841Z,19.00
2022-12-18T06:43:47.483Z,19.13
2022-12-18T06:46:14.011Z,17.63
2022-12-18T06:48:40.452Z,20.75
2022-12-18T06:51:06.854Z,19.92
2022-12-18T06:53:33.546Z,20.35
2022-12-18T06:56:09.271Z,20.05
2022-12-18T06:58:36.530Z,19.40
2022-12-18T07:01:03.586Z,20.40
2022-12-18T07:03:30.037Z,20.05
2022-12-18T07:05:56.379Z,18.95
2022-12-18T07:08:22.759Z,22.40
2022-12-18T07:10:54.441Z,21.40
2022-12-18T07:13:22.630Z,17.65
2022-12-18T07:15:48.904Z,19.00
2022-12-18T07:18:15.281Z,19.30
2022-12-18T07:20:41.723Z,17.88
2022-12-18T07:23:08.219Z,19.17
2022-12-18T07:25:35.834Z,16.73
2022-12-18T07:28:02.333Z,16.70
2022-12-18T07:30:28.678Z,16.42
2022-12-18T07:32:55.025Z,16.92
2022-12-18T07:35:24.994Z,16.67
2022-12-18T07:37:51.833Z,17.63
2022-12-18T07:40:18.216Z,16.92
2022-12-18T07:42:44.564Z,16.88
2022-12-18T07:45:10.976Z,17.50
2022-12-18T07:47:37.405Z,18.30
2022-12-18T07:50:04.374Z,17.17
2022-12-18T07:52:30.861Z,15.68
2022-12-18T07:54:57.333Z,16.65
2022-12-18T07:57:48.872Z,15.85
2022-12-18T08:00:10.281Z,15.82
2022-12-18T08:02:39.271Z,15.77
2022-12-18T08:05:05.990Z,16.25
2022-12-18T08:07:33.473Z,16.45
2022-12-18T08:09:59.949Z,17.00
2022-12-18T08:12:26.273Z,17.00
2022-12-18T08:14:52.681Z,16.92
2022-12-18T08:17:20.033Z,16.77
2022-12-18T08:19:46.318Z,17.30
2022-12-18T08:22:12.600Z,18.08
2022-12-18T08:24:39.408Z,16.83
2022-12-18T08:27:28.481Z,17.98
2022-12-18T08:29:52.134Z,15.57
2022-12-18T08:32:18.510Z,17.65
2022-12-18T08:34:44.860Z,13.50
2022-12-18T08:37:11.342Z,17.42
2022-12-18T08:39:37.778Z,18.10
2022-12-18T08:42:22.938Z,17.70
2022-12-18T08:44:49.318Z,16.00
2022-12-18T08:47:15.627Z,15.57
2022-12-18T08:49:42.006Z,16.70
2022-12-18T08:52:08.665Z,16.13
2022-12-18T08:54:34.967Z,16.20
2022-12-18T08:57:01.324Z,16.58
2022-12-18T08:59:31.090Z,16.13
2022-12-18T09:01:57.588Z,17.63
2022-12-18T09:04:23.992Z,16.08
2022-12-18T09:07:00.449Z,17.40
2022-12-18T09:09:26.892Z,16.20
2022-12-18T09:11:53.261Z,16.48
2022-12-18T09:14:20.715Z,18.45
2022-12-18T09:16:47.119Z,19.17
2022-12-18T09:19:13.524Z,19.83
2022-12-18T09:21:42.197Z,18.85
2022-12-18T09:24:13.305Z,18.48
2022-12-18T09:26:39.660Z,18.23
2022-12-18T09:29:08.155Z,16.90
2022-12-18T09:31:34.600Z,16.55
2022-12-18T09:34:00.974Z,16.70
2022-12-18T09:36:27.701Z,16.27
2022-12-18T09:38:54.181Z,16.17
2022-12-18T09:41:34.454Z,15.30
2022-12-18T09:44:02.533Z,15.32
2022-12-18T09:46:31.424Z,15.95
2022-12-18T09:49:00.470Z,14.55
2022-12-18T09:51:32.758Z,15.13
2022-12-18T09:54:07.549Z,14.65
2022-12-18T09:56:36.473Z,16.25
2022-12-18T09:59:03.865Z,14.05
2022-12-18T10:01:38.786Z,11.93
2022-12-18T10:04:10.239Z,13.50
2022-12-18T10:06:41.051Z,13.75
2022-12-18T10:09:07.315Z,12.30
2022-12-18T10:11:42.367Z,13.45
2022-12-18T10:14:19.604Z,12.40
2022-12-18T10:16:51.577Z,13.30
2022-12-18T10:19:19.297Z,12.98
2022-12-18T10:22:00.446Z,12.07
2022-12-18T10:24:51.228Z,12.07
2022-12-18T10:27:19.293Z,12.50
2022-12-18T10:29:46.591Z,12.27
2022-12-18T10:32:23.734Z,11.93
2022-12-18T10:34:54.175Z,12.88
2022-12-18T10:37:26.340Z,12.65
2022-12-18T10:40:16.667Z,13.20
2022-12-18T10:42:46.413Z,13.05
2022-12-18T10:45:14.458Z,13.02
2022-12-18T10:47:45.805Z,12.57
2022-12-18T10:50:20.028Z,11.85
2022-12-18T10:52:53.347Z,12.73
2022-12-18T10:55:19.898Z,12.57
2022-12-18T10:57:49.769Z,12.20
2022-12-18T11:00:26.307Z,12.38
2022-12-18T11:02:53.198Z,12.77
2022-12-18T11:05:30.947Z,13.20
2022-12-18T11:07:57.944Z,10.05
2022-12-18T11:10:30.115Z,11.63
2022-12-18T11:12:57.095Z,12.07
2022-12-18T11:15:30.560Z,11.88
2022-12-18T11:17:56.981Z,12.43
2022-12-18T11:20:34.980Z,11.18
2022-12-18T11:23:02.704Z,11.25
2022-12-18T11:25:33.328Z,12.05
2022-12-18T11:28:01.896Z,12.65
2022-12-18T11:30:32.832Z,11.57
2022-12-18T11:33:05.140Z,10.68
2022-12-18T11:35:36.385Z,10.88
2022-12-18T11:38:05.565Z,11.07
2022-12-18T11:40:41.115Z,11.77
2022-12-18T11:43:11.308Z,11.45
2022-12-18T11:45:44.013Z,11.18
2022-12-18T11:48:23.080Z,10.95
2022-12-18T11:50:53.761Z,9.65
2022-12-18T11:53:20.757Z,11.20
2022-12-18T11:56:14.030Z,11.43
2022-12-18T12:01:32.580Z,9.93
2022-12-18T12:04:17.571Z,10.85
2022-12-18T12:07:00.023Z,10.80
2022-12-18T12:09:32.280Z,10.85
2022-12-18T12:12:15.529Z,10.75
2022-12-18T12:14:51.689Z,11.70
2022-12-18T12:17:27.646Z,12.23
2022-12-18T12:20:02.988Z,10.73
2022-12-18T12:22:38.687Z,10.73
2022-12-18T12:25:11.262Z,11.10
2022-12-18T12:27:42.728Z,10.52
2022-12-18T12:30:27.455Z,11.85
2022-12-18T12:33:05.677Z,11.75
2022-12-18T12:35:44.145Z,10.50
2022-12-18T12:38:25.891Z,12.15
2022-12-18T12:41:02.817Z,10.90
2022-12-18T12:43:51.788Z,11.88
2022-12-18T12:46:22.205Z,11.93
2022-12-18T12:48:53.667Z,11.43
2022-12-18T12:51:23.177Z,12.35
2022-12-18T12:53:49.879Z,11.57
2022-12-18T12:56:18.916Z,12.90
2022-12-18T12:59:04.013Z,11.13
2022-12-18T13:01:37.851Z,10.70
2022-12-18T13:04:19.158Z,11.52
2022-12-18T13:06:46.246Z,12.02
2022-12-18T13:09:12.788Z,11.82
2022-12-18T13:11:59.997Z,13.35
2022-12-18T13:14:31.724Z,11.77
2022-12-18T13:17:28.452Z,11.90
2022-12-18T13:20:03.713Z,11.68
2022-12-18T13:22:32.599Z,12.32
2022-12-18T13:24:58.957Z,12.05
2022-12-18T13:27:44.149Z,11.07
2022-12-18T13:30:37.073Z,11.65
2022-12-18T13:33:15.693Z,12.00
2022-12-18T13:35:48.623Z,12.52
2022-12-18T13:38:22.366Z,12.25
2022-12-18T13:40:48.720Z,11.55
2022-12-18T13:43:20.849Z,11.32
2022-12-18T13:45:59.877Z,11.63
2022-12-18T13:48:26.927Z,11.88
2022-12-18T13:50:55.906Z,12.40
2022-12-18T13:53:24.234Z,13.10
2022-12-18T13:55:52.158Z,12.50
2022-12-18T13:58:18.561Z,12.55
2022-12-18T14:00:45.417Z,12.90
2022-12-18T14:03:28.137Z,11.95
2022-12-18T14:05:56.207Z,12.25
2022-12-18T14:08:22.931Z,13.38
2022-12-18T14:10:51.196Z,14.27
2022-12-18T14:13:24.227Z,11.77
2022-12-18T14:18:21.884Z,10.77
2022-12-18T14:20:52.541Z,9.23
2022-12-18T14:23:27.754Z,12.50
2022-12-18T14:25:57.769Z,12.32
2022-12-18T14:28:27.402Z,12.80
2022-12-18T14:30:54.500Z,12.48
2022-12-18T14:33:28.032Z,12.85
2022-12-18T14:35:54.462Z,13.65
2022-12-18T14:38:21.478Z,13.90
2022-12-18T14:40:49.140Z,13.10
2022-12-18T14:43:15.515Z,12.82
2022-12-18T14:45:46.976Z,13.25
2022-12-18T14:48:23.350Z,11.80
2022-12-18T14:50:58.771Z,12.60
2022-12-18T14:53:30.692Z,12.50
2022-12-18T14:55:58.918Z,11.43
2022-12-18T14:58:30.298Z,13.20
2022-12-18T15:00:56.712Z,12.77
2022-12-18T15:03:23.359Z,12.35
2022-12-18T15:05:50.191Z,13.90
2022-12-18T15:08:29.150Z,12.73
2022-12-18T15:10:55.536Z,14.50
2022-12-18T15:13:22.946Z,13.88
2022-12-18T15:15:50.261Z,12.57
2022-12-18T15:18:18.389Z,12.52
2022-12-18T15:20:46.369Z,12.80
2022-12-18T15:23:15.757Z,12.65
2022-12-18T15:25:42.134Z,13.85
2022-12-18T15:28:23.837Z,13.23
2022-12-18T15:31:03.839Z,12.18
2022-12-18T15:33:31.745Z,13.63
2022-12-18T15:35:59.272Z,13.55
2022-12-18T15:38:25.574Z,13.93
2022-12-18T15:40:52.902Z,13.55
2022-12-18T15:43:35.286Z,13.43
2022-12-18T15:46:04.500Z,14.07
2022-12-18T15:48:30.963Z,13.50
2022-12-18T15:50:58.116Z,13.43
2022-12-18T15:53:25.292Z,13.15
2022-12-18T15:56:10.024Z,14.85
2022-12-18T15:58:36.960Z,13.30
2022-12-18T16:01:03.465Z,13.63
2022-12-18T16:03:30.125Z,13.68
2022-12-18T16:05:56.645Z,13.57
2022-12-18T16:08:24.292Z,13.07
2022-12-18T16:10:50.794Z,12.18
2022-12-18T16:13:19.716Z,14.85
2022-12-18T16:15:46.149Z,14.93
2022-12-18T16:18:12.536Z,14.48
2022-12-18T16:20:39.438Z,14.40
2022-12-18T16:23:05.769Z,15.27
2022-12-18T16:25:32.389Z,13.30
2022-12-18T16:27:58.847Z,15.45
2022-12-18T16:30:28.530Z,14.25
2022-12-18T16:32:58.552Z,14.82
2022-12-18T16:35:25.687Z,15.43
2022-12-18T16:37:52.049Z,14.85
2022-12-18T16:40:18.646Z,15.88
2022-12-18T16:42:45.977Z,15.57
2022-12-18T16:45:13.719Z,16.20
2022-12-18T16:47:40.172Z,15.10
2022-12-18T16:50:07.555Z,16.67
2022-12-18T16:52:34.098Z,15.63
2022-12-18T16:55:00.569Z,16.35
2022-12-18T16:57:27.107Z,17.10
2022-12-18T16:59:53.685Z,16.08
2022-12-18T17:02:23.940Z,16.23
2022-12-18T17:04:53.078Z,16.05
2022-12-18T17:07:19.483Z,15.77
2022-12-18T17:09:45.863Z,15.82
2022-12-18T17:12:12.232Z,16.67
2022-12-18T17:14:38.809Z,16.70
2022-12-18T17:17:20.999Z,17.05
2022-12-18T17:19:48.610Z,17.50
2022-12-18T17:22:14.964Z,16.15
2022-12-18T17:24:41.306Z,16.85
2022-12-18T17:27:08.763Z,17.30
2022-12-18T17:29:35.181Z,18.13
2022-12-18T17:32:01.538Z,17.90
2022-12-18T17:34:28.139Z,16.92
2022-12-18T17:36:54.933Z,16.60
2022-12-18T17:39:21.290Z,17.45
2022-12-18T17:41:48.020Z,17.95
2022-12-18T17:44:14.523Z,16.48
2022-12-18T17:46:40.982Z,18.05
2022-12-18T17:49:07.393Z,17.38
2022-12-18T17:51:34.073Z,15.10
2022-12-18T17:54:00.384Z,16.80
2022-12-18T17:56:26.790Z,15.50
2022-12-18T17:58:53.533Z,17.27
2022-12-18T18:01:21.995Z,17.13
2022-12-18T18:03:51.545Z,15.45
2022-12-18T18:06:20.210Z,17.60
2022-12-18T18:08:46.572Z,16.90
2022-12-18T18:11:32.910Z,16.48
2022-12-18T18:14:02.337Z,17.30
2022-12-18T18:16:29.879Z,17.90
2022-12-18T18:19:00.072Z,17.45
2022-12-18T18:21:26.952Z,17.05
2022-12-18T18:23:53.766Z,16.70
2022-12-18T18:26:21.013Z,16.45
2022-12-18T18:28:47.475Z,16.65
2022-12-18T18:31:13.987Z,17.20
2022-12-18T18:33:40.815Z,16.95
2022-12-18T18:36:09.474Z,16.00
2022-12-18T18:38:40.587Z,17.48
2022-12-18T18:41:10.288Z,17.70
2022-12-18T18:43:36.976Z,18.85
2022-12-18T18:46:04.519Z,18.00
2022-12-18T18:48:32.518Z,15.98
2022-12-18T18:51:02.954Z,16.90
2022-12-18T18:53:29.714Z,17.92
2022-12-18T18:56:34.809Z,20.10
2022-12-18T18:58:46.692Z,17.13
2022-12-18T19:01:16.345Z,23.08
2022-12-18T19:03:44.035Z,17.95
2022-12-18T19:06:12.831Z,22.23
2022-12-18T19:08:40.103Z,29.48
2022-12-18T19:11:35.929Z,21.77
2022-12-18T19:14:04.200Z,18.77
2022-12-18T19:16:33.183Z,24.02
2022-12-18T19:19:01.754Z,22.20
2022-12-18T19:21:28.442Z,24.63
2022-12-18T19:23:57.527Z,20.58
2022-12-18T19:26:27.909Z,21.42
2022-12-18T19:28:59.988Z,25.92
2022-12-18T19:31:30.367Z,18.23
2022-12-18T19:33:59.955Z,20.63
2022-12-18T19:36:28.214Z,19.33
2022-12-18T19:38:55.296Z,27.55
2022-12-18T19:41:22.698Z,18.52
2022-12-18T19:43:49.780Z,18.23
2022-12-18T19:46:17.491Z,17.75
2022-12-18T19:48:45.037Z,17.85
2022-12-18T19:51:14.295Z,13.68
2022-12-18T19:53:40.609Z,20.83
2022-12-18T19:56:11.579Z,24.08
2022-12-18T19:58:38.172Z,19.92
2022-12-18T20:01:06.042Z,17.83
2022-12-18T20:03:34.217Z,19.33
2022-12-18T20:06:11.344Z,18.38
2022-12-18T20:08:38.154Z,19.60
2022-12-18T20:11:04.702Z,20.38
2022-12-18T20:13:31.036Z,20.67
2022-12-18T20:15:57.602Z,19.60
2022-12-18T20:18:23.980Z,16.02
2022-12-18T20:20:50.297Z,19.30
2022-12-18T20:23:18.284Z,19.02
2022-12-18T20:25:45.042Z,19.10
2022-12-18T20:28:11.561Z,18.80
2022-12-18T20:30:38.226Z,19.77
2022-12-18T20:33:04.661Z,23.23
2022-12-18T20:35:32.047Z,20.27
2022-12-18T20:37:59.041Z,19.50
2022-12-18T20:40:27.434Z,21.45
2022-12-18T20:42:53.764Z,22.38
2022-12-18T20:45:20.160Z,20.27
2022-12-18T20:47:46.597Z,23.00
2022-12-18T20:50:12.979Z,22.23
2022-12-18T20:52:39.345Z,17.35
2022-12-18T20:55:07.165Z,20.45
2022-12-18T20:57:33.537Z,17.27
2022-12-18T21:00:00.897Z,22.55
2022-12-18T21:02:27.487Z,23.27
2022-12-18T21:04:54.174Z,21.42
2022-12-18T21:07:20.504Z,20.85
2022-12-18T21:09:46.874Z,21.85
2022-12-18T21:12:40.379Z,20.58
2022-12-18T21:15:10.486Z,20.23
2022-12-18T21:17:37.503Z,23.55
2022-12-18T21:20:10.892Z,21.88
2022-12-18T21:22:42.272Z,21.83
2022-12-18T21:25:09.709Z,23.85
2022-12-18T21:27:36.141Z,22.85
2022-12-18T21:30:02.827Z,17.13
2022-12-18T21:32:32.176Z,24.77
2022-12-18T21:35:00.117Z,22.25
2022-12-18T21:37:26.591Z,25.10
2022-12-18T21:39:52.965Z,23.92
2022-12-18T21:42:38.190Z,23.13
2022-12-18T21:45:04.703Z,24.30
2022-12-18T21:47:31.121Z,25.25
2022-12-18T21:49:57.587Z,24.50
2022-12-18T21:52:31.879Z,25.42
2022-12-18T21:55:06.278Z,22.23
2022-12-18T21:57:35.416Z,23.75
2022-12-18T22:00:02.880Z,21.15
2022-12-18T22:02:38.548Z,25.10
2022-12-18T22:05:05.185Z,26.15
2022-12-18T22:07:31.494Z,24.33
2022-12-18T22:09:57.881Z,24.52
2022-12-18T22:12:43.139Z,24.00
2022-12-18T22:15:11.358Z,24.02
2022-12-18T22:17:39.489Z,22.52
2022-12-18T22:20:06.161Z,23.33
2022-12-18T22:22:32.470Z,26.35
2022-12-18T22:24:58.820Z,26.88
2022-12-18T22:27:25.181Z,28.38
2022-12-18T22:30:06.553Z,24.05
2022-12-18T22:32:33.703Z,25.55
2022-12-18T22:35:05.825Z,28.50
2022-12-18T22:37:33.708Z,22.42
2022-12-18T22:40:00.146Z,23.00
2022-12-18T22:42:30.249Z,21.65
2022-12-18T22:44:56.859Z,23.50
2022-12-18T22:47:27.862Z,27.83
2022-12-18T22:52:22.160Z,24.35
2022-12-18T22:54:51.307Z,25.02
2022-12-18T22:57:19.906Z,25.55
2022-12-18T22:59:46.259Z,25.83
2022-12-18T23:02:12.711Z,23.02
2022-12-18T23:04:39.738Z,26.90
2022-12-18T23:07:06.145Z,26.52
2022-12-18T23:09:32.843Z,25.23
2022-12-18T23:11:59.146Z,24.98
2022-12-18T23:14:25.551Z,27.30
2022-12-18T23:16:52.255Z,28.00
2022-12-18T23:19:19.636Z,26.63
2022-12-18T23:21:45.920Z,23.83
2022-12-18T23:24:12.255Z,27.38
2022-12-18T23:26:38.600Z,26.88
2022-12-18T23:29:05.093Z,25.83
2022-12-18T23:31:33.148Z,27.00
2022-12-18T23:34:00.365Z,26.65
2022-12-18T23:36:27.122Z,27.05
2022-12-18T23:38:57.570Z,27.50
2022-12-18T23:41:25.447Z,26.48
2022-12-18T23:43:52.434Z,23.90
2022-12-18T23:46:20.127Z,27.27
2022-12-18T23:48:46.706Z,32.50
2022-12-18T23:51:13.787Z,29.85
2022-12-18T23:53:40.187Z,29.27
2022-12-18T23:56:06.647Z,28.75
2022-12-18T23:58:34.119Z,32.70
